Time;durP1;ratioP1;P1;durP2;ratioP2;P2;SDS_P1;SDS_P2;PMS_P1;PMS_P2;Temp;Humidity;BMP_temperature;BMP_pressure;BME280_temperature;BME280_humidity;BME280_pressure;Samples;Min_cycle;Max_cycle;Signal;HPM_P1;HPM_P2
2022/12/14 00:00:55;;;;;;;14.43;8.50;;;-1.20;1.00;;;;;;5049375;28;20206;-86
2022/12/14 00:03:21;;;;;;;14.80;8.33;;;-1.20;1.00;;;;;;5045308;28;20552;-87
2022/12/14 00:05:46;;;;;;;13.95;7.53;;;-1.20;1.00;;;;;;5052656;28;20263;-86
2022/12/14 00:08:14;;;;;;;12.03;8.40;;;-1.20;1.00;;;;;;5047372;28;20208;-87
2022/12/14 00:10:40;;;;;;;11.30;7.07;;;-1.20;1.00;;;;;;5045393;28;20186;-86
2022/12/14 00:13:07;;;;;;;13.05;7.32;;;-1.20;1.00;;;;;;5042361;28;20707;-85
2022/12/14 00:15:33;;;;;;;13.25;7.00;;;-1.20;1.00;;;;;;5042998;28;20248;-87
2022/12/14 00:17:59;;;;;;;11.60;8.10;;;-1.10;1.00;;;;;;5042187;28;20289;-86
2022/12/14 00:20:26;;;;;;;14.32;8.88;;;-1.10;1.00;;;;;;5041775;28;21008;-86
2022/12/14 00:22:52;;;;;;;14.75;7.90;;;-1.10;1.00;;;;;;5043077;28;20179;-86
2022/12/14 00:25:18;;;;;;;11.20;7.68;;;-1.10;1.00;;;;;;5051989;28;20284;-86
2022/12/14 00:27:45;;;;;;;16.03;8.23;;;-1.10;1.00;;;;;;5039050;28;20264;-86
2022/12/14 00:30:12;;;;;;;12.48;7.50;;;-1.10;1.00;;;;;;5045990;28;20191;-88
2022/12/14 00:32:37;;;;;;;14.45;8.57;;;-1.10;1.00;;;;;;5041422;28;20279;-85
2022/12/14 00:35:03;;;;;;;16.23;7.23;;;-1.10;1.00;;;;;;5045141;28;20230;-86
2022/12/14 00:37:29;;;;;;;13.67;9.00;;;-1.10;1.00;;;;;;5042043;28;20201;-86
2022/12/14 00:39:54;;;;;;;14.70;8.73;;;-1.10;1.00;;;;;;5046469;28;20440;-86
2022/12/14 00:42:20;;;;;;;12.13;7.17;;;-1.10;1.00;;;;;;5052455;28;20667;-86
2022/12/14 00:44:45;;;;;;;14.43;8.13;;;-1.10;1.00;;;;;;5046393;28;20185;-86
2022/12/14 00:47:11;;;;;;;14.33;7.97;;;-1.10;1.00;;;;;;5037280;28;20282;-86
2022/12/14 00:49:36;;;;;;;13.53;9.00;;;-1.00;1.00;;;;;;5041712;28;20277;-86
2022/12/14 00:52:02;;;;;;;16.27;7.67;;;-1.00;1.00;;;;;;5045736;28;20531;-86
2022/12/14 00:54:27;;;;;;;11.47;7.30;;;-1.00;1.00;;;;;;5048894;28;20229;-86
2022/12/14 00:56:53;;;;;;;13.47;7.00;;;-1.00;1.00;;;;;;5043930;28;20202;-86
2022/12/14 00:59:18;;;;;;;18.73;10.07;;;-1.00;1.00;;;;;;5045630;28;20189;-86
2022/12/14 01:01:44;;;;;;;15.03;8.50;;;-1.00;1.00;;;;;;5051169;28;20209;-86
2022/12/14 01:04:16;;;;;;;13.07;8.10;;;-1.00;1.00;;;;;;5042351;28;20243;-86
2022/12/14 01:06:42;;;;;;;13.60;8.68;;;-1.00;1.00;;;;;;5043629;28;20674;-86
2022/12/14 01:09:08;;;;;;;20.55;8.65;;;-1.00;1.00;;;;;;5044133;28;20195;-87
2022/12/14 01:11:33;;;;;;;13.70;8.30;;;-1.00;1.00;;;;;;5046509;28;20190;-86
2022/12/14 01:13:59;;;;;;;11.33;7.97;;;-1.00;1.00;;;;;;5047969;28;20205;-86
2022/12/14 01:16:24;;;;;;;12.63;7.13;;;-1.00;1.00;;;;;;5044792;28;20213;-87
2022/12/14 01:18:50;;;;;;;14.30;8.63;;;-1.00;1.00;;;;;;5045444;28;20201;-86
2022/12/14 01:21:22;;;;;;;21.77;8.27;;;-1.00;1.00;;;;;;5048418;28;20555;-86
2022/12/14 01:23:51;;;;;;;13.68;7.97;;;-1.00;1.00;;;;;;5037000;28;20174;-87
2022/12/14 01:26:17;;;;;;;12.05;8.05;;;-1.00;1.00;;;;;;5041487;28;20217;-87
2022/12/14 01:28:44;;;;;;;15.25;7.68;;;-1.00;1.00;;;;;;5041390;28;20190;-86
2022/12/14 01:31:12;;;;;;;13.05;7.57;;;-1.00;1.00;;;;;;5043392;28;20221;-87
2022/12/14 01:33:38;;;;;;;14.27;6.85;;;-1.00;1.00;;;;;;5044915;28;20577;-87
2022/12/14 01:36:06;;;;;;;12.43;7.33;;;-1.00;1.00;;;;;;5040850;28;20209;-86
2022/12/14 01:38:32;;;;;;;17.63;7.72;;;-1.00;1.00;;;;;;5041203;28;20179;-86
2022/12/14 01:40:58;;;;;;;14.87;7.47;;;-1.00;1.00;;;;;;5043252;28;20345;-86
2022/12/14 01:43:24;;;;;;;11.65;6.85;;;-1.00;1.00;;;;;;5041888;28;20243;-87
2022/12/14 01:45:54;;;;;;;12.75;8.10;;;-1.00;1.00;;;;;;5040885;28;20204;-86
2022/12/14 01:48:21;;;;;;;15.45;7.90;;;-1.00;1.00;;;;;;5037476;28;20177;-87
2022/12/14 01:50:46;;;;;;;17.60;8.00;;;-1.00;1.00;;;;;;5051011;28;20676;-87
2022/12/14 01:53:17;;;;;;;21.40;9.30;;;-1.00;1.00;;;;;;5043984;28;20186;-87
2022/12/14 01:55:48;;;;;;;13.10;8.23;;;-1.00;1.00;;;;;;5040743;28;20255;-86
2022/12/14 01:58:17;;;;;;;15.35;7.78;;;-1.00;1.00;;;;;;5041084;28;20177;-87
2022/12/14 02:00:43;;;;;;;12.70;7.18;;;-1.10;1.00;;;;;;5039985;28;20239;-87
2022/12/14 02:03:18;;;;;;;12.68;6.93;;;-1.10;1.00;;;;;;5041937;28;20188;-86
2022/12/14 02:05:55;;;;;;;16.40;7.43;;;-1.10;1.00;;;;;;5041668;28;20202;-86
2022/12/14 02:08:22;;;;;;;14.68;9.18;;;-1.20;1.00;;;;;;5045247;28;20204;-87
2022/12/14 02:10:49;;;;;;;13.50;8.02;;;-1.20;1.00;;;;;;5045719;28;20680;-86
2022/12/14 02:13:37;;;;;;;14.57;8.35;;;-1.20;1.00;;;;;;5049629;28;20268;-87
2022/12/14 02:16:03;;;;;;;15.52;9.32;;;-1.20;1.00;;;;;;5039619;28;20197;-87
2022/12/14 02:18:30;;;;;;;17.40;8.83;;;-1.20;1.00;;;;;;5044378;28;20646;-87
2022/12/14 02:21:41;;;;;;;12.25;7.97;;;-1.20;1.00;;;;;;5043368;28;20174;-86
2022/12/14 02:24:37;;;;;;;12.88;7.20;;;-1.20;1.00;;;;;;5045029;28;20203;-86
2022/12/14 02:27:12;;;;;;;16.88;7.80;;;-1.20;1.00;;;;;;5045060;28;20206;-87
2022/12/14 02:29:59;;;;;;;16.02;8.27;;;-1.20;1.00;;;;;;5036084;28;20201;-87
2022/12/14 02:32:31;;;;;;;18.60;8.63;;;-1.10;1.00;;;;;;5036194;28;20194;-86
2022/12/14 02:34:59;;;;;;;12.45;7.47;;;-1.10;1.00;;;;;;5034023;28;20213;-86
2022/12/14 02:37:38;;;;;;;17.35;8.18;;;-1.10;1.00;;;;;;5046300;28;20347;-87
2022/12/14 02:40:31;;;;;;;13.65;8.35;;;-1.10;1.00;;;;;;5046404;28;20186;-86
2022/12/14 02:43:17;;;;;;;13.73;8.55;;;-1.10;1.00;;;;;;5038343;28;20182;-86
2022/12/14 02:46:02;;;;;;;21.75;8.70;;;-1.10;1.00;;;;;;5035555;28;20618;-86
2022/12/14 02:48:37;;;;;;;13.02;8.32;;;-1.10;1.00;;;;;;5039877;28;20669;-86
2022/12/14 02:51:26;;;;;;;12.20;7.00;;;-1.10;1.00;;;;;;5040661;28;20192;-86
2022/12/14 02:54:03;;;;;;;11.60;7.32;;;-1.10;1.00;;;;;;5047217;28;20224;-86
2022/12/14 02:56:35;;;;;;;14.27;8.65;;;-1.10;1.00;;;;;;5042370;28;20208;-86
2022/12/14 02:59:03;;;;;;;12.68;7.88;;;-1.10;1.00;;;;;;5049046;28;20193;-86
2022/12/14 03:01:29;;;;;;;14.48;7.40;;;-1.10;1.00;;;;;;5041189;28;20173;-86
2022/12/14 03:03:55;;;;;;;16.10;7.63;;;-1.10;1.00;;;;;;5037729;28;20174;-86
2022/12/14 03:06:26;;;;;;;11.13;6.70;;;-1.00;1.00;;;;;;5049296;28;20220;-86
2022/12/14 03:09:09;;;;;;;14.10;8.50;;;-1.00;1.00;;;;;;5033591;28;20186;-86
2022/12/14 03:11:47;;;;;;;14.75;9.20;;;-1.00;1.00;;;;;;5046965;28;20191;-87
2022/12/14 03:14:21;;;;;;;14.32;7.60;;;-1.00;1.00;;;;;;5037929;28;20205;-87
2022/12/14 03:16:49;;;;;;;12.02;6.95;;;-0.90;1.00;;;;;;5042768;28;20212;-87
2022/12/14 03:19:36;;;;;;;12.25;6.95;;;-0.90;1.00;;;;;;5043467;28;20176;-86
2022/12/14 03:22:08;;;;;;;22.77;8.05;;;-0.90;1.00;;;;;;5043790;28;20545;-86
2022/12/14 03:24:44;;;;;;;17.45;9.48;;;-0.90;1.00;;;;;;5047308;28;20288;-87
2022/12/14 03:27:24;;;;;;;12.85;6.80;;;-0.90;1.00;;;;;;5049799;28;20312;-87
2022/12/14 03:30:01;;;;;;;14.98;8.13;;;-0.90;1.00;;;;;;5047492;28;20828;-88
2022/12/14 03:32:30;;;;;;;14.00;7.38;;;-0.90;99.90;;;;;;5048472;28;20194;-86
2022/12/14 03:34:59;;;;;;;11.55;7.10;;;-0.90;99.90;;;;;;5039633;28;20209;-87
2022/12/14 03:37:46;;;;;;;14.02;7.50;;;-0.80;99.90;;;;;;5036748;28;20565;-87
2022/12/14 03:40:13;;;;;;;12.10;7.80;;;-0.80;99.90;;;;;;5052128;28;20264;-87
2022/12/14 03:43:06;;;;;;;12.75;7.47;;;-0.80;99.90;;;;;;5049835;28;20208;-86
2022/12/14 03:45:43;;;;;;;11.65;8.10;;;-0.90;99.90;;;;;;5041421;28;20178;-87
2022/12/14 03:48:30;;;;;;;11.75;6.78;;;-0.90;99.90;;;;;;5036179;28;20727;-87
2022/12/14 03:51:06;;;;;;;12.15;7.15;;;-0.90;99.90;;;;;;5038883;28;20185;-88
2022/12/14 03:53:49;;;;;;;10.45;7.00;;;-0.90;1.00;;;;;;5046717;28;20213;-86
2022/12/14 03:56:15;;;;;;;13.88;7.38;;;-0.80;1.00;;;;;;5048234;28;20554;-88
2022/12/14 03:59:09;;;;;;;19.83;7.27;;;-0.80;1.00;;;;;;5044755;28;20196;-87
2022/12/14 04:01:53;;;;;;;11.63;7.05;;;-0.80;1.00;;;;;;5034894;28;20184;-87
2022/12/14 04:04:42;;;;;;;17.83;8.05;;;-0.80;1.00;;;;;;5037917;28;20187;-86
2022/12/14 04:07:22;;;;;;;11.55;7.50;;;-0.80;1.00;;;;;;5044439;28;20221;-85
2022/12/14 04:09:57;;;;;;;12.60;7.28;;;-0.90;1.00;;;;;;5041391;28;20188;-86
2022/12/14 04:21:14;;;;;;;11.43;7.03;;;-0.90;1.00;;;;;;5042211;28;20273;-86
2022/12/14 04:26:37;;;;;;;14.05;7.65;;;-0.90;1.00;;;;;;5042712;28;20209;-86
2022/12/14 04:31:58;;;;;;;13.75;7.93;;;-0.90;1.00;;;;;;5040618;28;20575;-86
2022/12/14 04:34:27;;;;;;;11.05;6.20;;;-0.90;1.00;;;;;;5049964;28;20198;-86
2022/12/14 04:36:56;;;;;;;12.85;7.68;;;-0.90;1.00;;;;;;5050141;28;20197;-86
2022/12/14 04:39:32;;;;;;;12.85;7.68;;;-1.00;1.00;;;;;;5038671;28;20181;-86
2022/12/14 04:42:01;;;;;;;10.93;7.75;;;-1.00;1.00;;;;;;5043028;28;20275;-87
2022/12/14 04:44:43;;;;;;;12.68;7.82;;;-1.00;1.00;;;;;;5041900;28;20729;-88
2022/12/14 04:47:11;;;;;;;13.18;7.28;;;-1.00;1.00;;;;;;5051648;28;20217;-87
2022/12/14 04:49:54;;;;;;;12.82;6.85;;;-1.00;1.00;;;;;;5042323;28;20192;-87
2022/12/14 04:52:36;;;;;;;11.90;7.68;;;-1.00;1.00;;;;;;5042483;28;20193;-87
2022/12/14 04:55:17;;;;;;;12.43;7.00;;;-1.00;1.00;;;;;;5041947;28;20208;-87
2022/12/14 04:57:56;;;;;;;13.90;6.55;;;-1.00;1.00;;;;;;5049555;28;20202;-87
2022/12/14 05:00:22;;;;;;;11.98;7.10;;;-1.00;1.00;;;;;;5042412;28;20190;-87
2022/12/14 05:03:25;;;;;;;15.38;7.15;;;-1.00;1.00;;;;;;5045550;28;20216;-86
2022/12/14 05:06:06;;;;;;;12.60;7.45;;;-1.00;1.00;;;;;;5047960;28;20205;-86
2022/12/14 05:09:03;;;;;;;8.98;6.18;;;-1.00;1.00;;;;;;5040742;28;20185;-87
2022/12/14 05:11:35;;;;;;;12.30;6.85;;;-1.00;1.00;;;;;;5050748;28;20653;-86
2022/12/14 05:14:07;;;;;;;16.40;7.05;;;-1.00;1.00;;;;;;5040633;28;20756;-86
2022/12/14 05:16:35;;;;;;;15.60;7.53;;;-1.00;1.00;;;;;;5039092;28;20202;-85
2022/12/14 05:19:00;;;;;;;13.07;6.45;;;-1.00;1.00;;;;;;5036102;28;20179;-86
2022/12/14 05:24:10;;;;;;;11.40;7.72;;;-0.90;1.00;;;;;;5046243;28;20243;-87
2022/12/14 05:26:35;;;;;;;12.07;6.90;;;-0.90;1.00;;;;;;5042487;28;20739;-87
2022/12/14 05:29:01;;;;;;;11.77;7.90;;;-0.90;1.00;;;;;;5040314;28;20221;-86
2022/12/14 05:31:26;;;;;;;14.30;6.53;;;-0.90;1.00;;;;;;5041159;28;20566;-86
2022/12/14 05:33:52;;;;;;;11.97;6.80;;;-0.90;1.00;;;;;;5037036;28;20258;-86
2022/12/14 05:36:18;;;;;;;14.00;7.20;;;-0.90;1.00;;;;;;5037272;28;20201;-87
2022/12/14 05:38:44;;;;;;;13.05;7.55;;;-0.90;1.00;;;;;;5043450;28;20173;-87
2022/12/14 05:41:09;;;;;;;12.83;8.63;;;-0.90;1.00;;;;;;5041725;28;20181;-85
2022/12/14 05:43:34;;;;;;;11.40;7.90;;;-0.90;1.00;;;;;;5045172;28;20264;-87
2022/12/14 05:46:02;;;;;;;12.50;7.93;;;-0.90;1.00;;;;;;5046095;28;20236;-87
2022/12/14 05:48:28;;;;;;;13.05;7.45;;;-0.90;1.00;;;;;;5037901;28;20220;-87
2022/12/14 05:50:54;;;;;;;15.13;7.75;;;-0.90;1.00;;;;;;5048215;28;20186;-86
2022/12/14 05:53:20;;;;;;;11.77;7.33;;;-0.90;1.00;;;;;;5047241;28;20676;-86
2022/12/14 05:55:46;;;;;;;12.80;7.97;;;-0.90;1.00;;;;;;5046341;28;20193;-87
2022/12/14 05:58:12;;;;;;;11.95;7.50;;;-0.90;1.00;;;;;;5040260;28;20927;-87
2022/12/14 06:00:38;;;;;;;12.73;7.27;;;-0.90;1.00;;;;;;5040817;28;20189;-87
2022/12/14 06:03:04;;;;;;;13.40;7.07;;;-0.90;1.00;;;;;;5041030;28;20210;-87
2022/12/14 06:05:30;;;;;;;13.93;7.90;;;-0.90;1.00;;;;;;5042209;28;20212;-87
2022/12/14 06:07:55;;;;;;;14.40;8.33;;;-0.90;1.00;;;;;;5042412;28;20985;-87
2022/12/14 06:10:21;;;;;;;11.47;7.83;;;-0.90;1.00;;;;;;5047593;28;20186;-87
2022/12/14 06:12:47;;;;;;;13.10;7.37;;;-0.90;1.00;;;;;;5033621;28;20193;-86
2022/12/14 06:15:12;;;;;;;13.87;7.87;;;-0.90;1.00;;;;;;5044555;28;20299;-87
2022/12/14 06:17:45;;;;;;;11.17;6.80;;;-0.90;1.00;;;;;;5038361;28;20235;-87
2022/12/14 06:20:12;;;;;;;12.52;8.20;;;-0.80;1.00;;;;;;5046428;28;20169;-86
2022/12/14 06:22:38;;;;;;;14.63;8.05;;;-0.80;1.00;;;;;;5042210;28;20181;-86
2022/12/14 06:25:03;;;;;;;12.33;7.43;;;-0.80;1.00;;;;;;5039957;28;20182;-87
2022/12/14 06:27:29;;;;;;;12.07;7.10;;;-0.80;1.00;;;;;;5043193;28;20767;-85
2022/12/14 06:29:54;;;;;;;13.70;7.63;;;-0.80;1.00;;;;;;5050230;28;20531;-87
2022/12/14 06:32:20;;;;;;;14.30;8.93;;;-0.70;1.00;;;;;;5047746;28;20617;-86
2022/12/14 06:34:46;;;;;;;9.27;6.83;;;-0.70;1.00;;;;;;5045774;28;20205;-87
2022/12/14 06:37:12;;;;;;;13.30;8.07;;;-0.70;1.00;;;;;;5036525;28;20250;-86
2022/12/14 06:39:38;;;;;;;13.68;7.40;;;-0.70;1.00;;;;;;5044587;28;20178;-86
2022/12/14 06:42:04;;;;;;;13.53;7.60;;;-0.60;1.00;;;;;;5046435;28;20174;-86
2022/12/14 06:44:29;;;;;;;11.82;7.32;;;-0.70;1.00;;;;;;5052742;28;20209;-87
2022/12/14 06:46:55;;;;;;;11.43;6.70;;;-0.60;1.00;;;;;;5050932;28;20712;-86
2022/12/14 06:49:21;;;;;;;11.97;7.10;;;-0.60;1.00;;;;;;5042718;28;20173;-87
2022/12/14 06:51:46;;;;;;;13.30;7.50;;;-0.60;1.00;;;;;;5048660;28;20181;-87
2022/12/14 06:54:14;;;;;;;16.00;9.10;;;-0.60;1.00;;;;;;5051693;28;20201;-86
2022/12/14 06:56:41;;;;;;;12.68;7.43;;;-0.60;1.00;;;;;;5050304;28;20436;-87
2022/12/14 06:59:07;;;;;;;14.50;8.82;;;-0.60;1.00;;;;;;5032777;28;20182;-86
2022/12/14 07:01:34;;;;;;;12.05;7.57;;;-0.60;1.00;;;;;;5036225;28;20670;-86
2022/12/14 07:04:00;;;;;;;16.33;7.97;;;-0.60;1.00;;;;;;5039539;28;20190;-86
2022/12/14 07:06:30;;;;;;;13.60;8.30;;;-0.60;1.00;;;;;;5047942;28;20597;-86
2022/12/14 07:08:57;;;;;;;15.15;8.73;;;-0.60;1.00;;;;;;5044431;28;20186;-86
2022/12/14 07:11:24;;;;;;;14.70;8.25;;;-0.60;1.00;;;;;;5047698;28;20295;-86
2022/12/14 07:13:49;;;;;;;20.23;9.65;;;-0.60;1.00;;;;;;5048090;28;20208;-87
2022/12/14 07:16:18;;;;;;;19.30;7.20;;;-0.60;1.00;;;;;;5042336;28;20201;-86
2022/12/14 07:18:44;;;;;;;12.48;7.50;;;-0.50;1.00;;;;;;5042638;28;20234;-87
2022/12/14 07:21:12;;;;;;;17.47;8.60;;;-0.50;1.00;;;;;;5045815;28;20280;-86
2022/12/14 07:23:45;;;;;;;18.88;8.20;;;-0.40;1.00;;;;;;5042739;28;20444;-87
2022/12/14 07:26:31;;;;;;;14.75;7.85;;;-0.40;1.00;;;;;;5042009;28;20229;-88
2022/12/14 07:28:59;;;;;;;21.20;7.75;;;-0.30;1.00;;;;;;5046818;28;20185;-86
2022/12/14 07:31:26;;;;;;;16.48;9.05;;;-0.20;1.00;;;;;;5044276;28;20210;-87
2022/12/14 07:33:57;;;;;;;17.67;9.70;;;-0.10;1.00;;;;;;5047922;28;20206;-87
2022/12/14 07:36:25;;;;;;;11.60;7.80;;;0.00;1.00;;;;;;5043909;28;20263;-86
2022/12/14 07:38:51;;;;;;;16.70;8.60;;;0.00;1.00;;;;;;5044096;28;20178;-86
2022/12/14 07:41:20;;;;;;;13.70;8.65;;;0.00;1.00;;;;;;5048244;28;20247;-87
2022/12/14 07:43:46;;;;;;;11.57;7.97;;;0.00;1.00;;;;;;5040671;28;20260;-86
2022/12/14 07:46:16;;;;;;;14.10;8.52;;;0.00;1.00;;;;;;5042250;28;20205;-86
2022/12/14 07:48:47;;;;;;;16.80;8.00;;;0.00;1.00;;;;;;5044810;28;20265;-86
2022/12/14 07:51:15;;;;;;;14.77;8.05;;;0.10;1.00;;;;;;5048152;28;20269;-87
2022/12/14 07:53:41;;;;;;;14.77;7.90;;;0.10;1.00;;;;;;5051465;28;20201;-87
2022/12/14 07:56:13;;;;;;;13.85;8.75;;;0.10;1.00;;;;;;5051067;28;20213;-87
2022/12/14 07:58:39;;;;;;;14.43;8.23;;;0.20;1.00;;;;;;5044981;28;20206;-86
2022/12/14 08:01:17;;;;;;;12.17;7.30;;;0.20;1.00;;;;;;5046187;28;20213;-86
2022/12/14 08:03:47;;;;;;;16.05;8.70;;;0.30;1.00;;;;;;5051686;28;21092;-86
2022/12/14 08:06:14;;;;;;;12.45;8.63;;;0.30;1.00;;;;;;5047030;28;20715;-86
2022/12/14 08:08:40;;;;;;;20.02;10.82;;;0.30;1.00;;;;;;5050934;28;20178;-86
2022/12/14 08:11:06;;;;;;;15.10;9.40;;;0.30;1.00;;;;;;5054504;28;20204;-87
2022/12/14 08:13:33;;;;;;;12.38;8.10;;;0.40;1.00;;;;;;5036864;28;20446;-86
2022/12/14 08:16:06;;;;;;;12.15;8.25;;;0.40;1.00;;;;;;5039747;28;20198;-87
2022/12/14 08:18:32;;;;;;;12.48;8.35;;;0.40;1.00;;;;;;5055179;28;20248;-85
2022/12/14 08:20:58;;;;;;;16.95;8.25;;;0.50;1.00;;;;;;5042414;28;20248;-86
2022/12/14 08:23:24;;;;;;;18.27;10.20;;;0.50;1.00;;;;;;5049420;28;20185;-87
2022/12/14 08:25:54;;;;;;;12.82;8.35;;;0.50;1.00;;;;;;5043267;28;20609;-86
2022/12/14 08:28:20;;;;;;;14.75;8.60;;;0.60;1.00;;;;;;5047586;28;20248;-87
2022/12/14 08:30:46;;;;;;;15.85;8.57;;;0.60;1.00;;;;;;5047454;28;20202;-86
2022/12/14 08:33:11;;;;;;;13.73;8.63;;;0.70;1.00;;;;;;5048001;28;20676;-87
2022/12/14 08:35:39;;;;;;;17.00;9.57;;;0.70;99.90;;;;;;5051225;28;20250;-86
2022/12/14 08:38:07;;;;;;;20.38;8.23;;;0.80;99.90;;;;;;5047641;28;20181;-86
2022/12/14 08:40:36;;;;;;;12.23;7.40;;;0.80;99.90;;;;;;5048847;28;20173;-86
2022/12/14 08:43:02;;;;;;;15.27;8.68;;;0.80;99.90;;;;;;5043222;28;20204;-87
2022/12/14 08:45:30;;;;;;;16.27;8.37;;;0.80;99.90;;;;;;5060680;28;20181;-86
2022/12/14 08:47:57;;;;;;;13.23;8.32;;;0.80;99.90;;;;;;5055044;28;20193;-86
2022/12/14 08:50:23;;;;;;;15.68;8.65;;;0.90;99.90;;;;;;5057346;28;20186;-86
2022/12/14 08:52:48;;;;;;;13.98;7.63;;;1.00;99.90;;;;;;5048264;28;20518;-87
2022/12/14 08:55:14;;;;;;;12.43;8.00;;;1.10;99.90;;;;;;5056855;28;20198;-85
2022/12/14 08:57:40;;;;;;;10.50;7.60;;;1.20;99.90;;;;;;5059077;28;20245;-86
2022/12/14 09:00:08;;;;;;;14.53;8.00;;;1.30;99.90;;;;;;5068032;28;20181;-86
2022/12/14 09:02:33;;;;;;;20.70;9.02;;;1.30;99.90;;;;;;5066086;28;20181;-85
2022/12/14 09:04:59;;;;;;;15.67;9.60;;;1.30;99.90;;;;;;5051493;28;20272;-85
2022/12/14 09:07:26;;;;;;;15.10;8.63;;;1.40;99.90;;;;;;5057677;28;20526;-85
2022/12/14 09:09:52;;;;;;;18.20;9.48;;;1.40;99.90;;;;;;5050477;28;20590;-86
2022/12/14 09:12:17;;;;;;;13.60;8.37;;;1.40;99.90;;;;;;5060856;28;20232;-86
2022/12/14 09:14:45;;;;;;;13.40;8.40;;;1.50;99.90;;;;;;5059530;28;20263;-85
2022/12/14 09:17:11;;;;;;;15.10;8.35;;;1.50;99.90;;;;;;5059449;28;20197;-85
2022/12/14 09:19:36;;;;;;;15.93;8.93;;;1.60;99.90;;;;;;5050867;28;20188;-86
2022/12/14 09:22:02;;;;;;;16.30;9.10;;;1.70;99.90;;;;;;5059613;28;20427;-86
2022/12/14 09:24:28;;;;;;;16.45;8.55;;;1.70;99.90;;;;;;5054830;28;20184;-87
2022/12/14 09:26:54;;;;;;;14.82;9.85;;;1.70;99.90;;;;;;5053669;28;20208;-85
2022/12/14 09:29:20;;;;;;;14.73;8.83;;;1.80;99.90;;;;;;5055139;28;20185;-86
2022/12/14 09:31:45;;;;;;;17.30;9.73;;;1.70;99.90;;;;;;5058600;28;20197;-87
2022/12/14 09:34:11;;;;;;;13.20;8.63;;;1.70;99.90;;;;;;5056845;28;20213;-85
2022/12/14 09:36:37;;;;;;;14.70;7.90;;;1.70;99.90;;;;;;5054532;28;20205;-85
2022/12/14 09:39:03;;;;;;;14.90;8.90;;;1.70;99.90;;;;;;5047026;28;20178;-86
2022/12/14 09:41:34;;;;;;;18.40;9.90;;;1.90;99.90;;;;;;5056730;28;20509;-86
2022/12/14 09:44:04;;;;;;;20.25;8.73;;;2.10;99.90;;;;;;5049859;28;20448;-86
2022/12/14 09:47:00;;;;;;;18.33;8.18;;;2.40;99.90;;;;;;5054531;28;20194;-87
2022/12/14 09:49:32;;;;;;;29.92;9.05;;;2.70;99.90;;;;;;5055047;28;20182;-86
2022/12/14 09:52:00;;;;;;;15.38;9.10;;;2.90;99.90;;;;;;5054571;28;20205;-87
2022/12/14 09:54:33;;;;;;;20.77;9.52;;;3.10;99.90;;;;;;5043780;28;20209;-87
2022/12/14 09:57:07;;;;;;;15.55;8.95;;;3.20;99.90;;;;;;5034933;28;20194;-87
2022/12/14 09:59:33;;;;;;;18.48;9.43;;;3.40;99.90;;;;;;5053367;28;20173;-87
2022/12/14 10:02:24;;;;;;;20.58;10.40;;;3.50;99.90;;;;;;5047831;28;20184;-86
2022/12/14 10:05:00;;;;;;;19.15;9.40;;;3.40;99.90;;;;;;5054838;28;20178;-87
2022/12/14 10:07:38;;;;;;;15.02;8.55;;;3.40;99.90;;;;;;5047500;28;20250;-87
2022/12/14 10:10:17;;;;;;;11.25;8.25;;;3.40;99.90;;;;;;5053905;28;20675;-86
2022/12/14 10:12:57;;;;;;;11.70;8.20;;;3.60;99.90;;;;;;5045981;28;20205;-86
2022/12/14 10:15:57;;;;;;;15.40;8.60;;;3.80;99.90;;;;;;5054203;28;20204;-86
2022/12/14 10:18:37;;;;;;;14.77;9.98;;;4.00;99.90;;;;;;5047839;28;20269;-87
2022/12/14 10:21:17;;;;;;;17.80;9.35;;;4.10;99.90;;;;;;5042647;28;20251;-86
2022/12/14 10:23:57;;;;;;;14.50;8.90;;;4.10;99.90;;;;;;5050504;28;20176;-87
2022/12/14 10:26:29;;;;;;;15.18;9.10;;;4.00;99.90;;;;;;5061812;28;20225;-88
2022/12/14 10:28:57;;;;;;;14.50;8.55;;;4.00;99.90;;;;;;5050228;28;20196;-86
2022/12/14 10:31:39;;;;;;;16.23;9.32;;;4.00;99.90;;;;;;5045461;28;20189;-87
2022/12/14 10:34:21;;;;;;;13.73;10.02;;;4.10;99.90;;;;;;5054775;28;20229;-88
2022/12/14 10:37:01;;;;;;;14.05;9.07;;;4.20;99.90;;;;;;5047676;28;20202;-86
2022/12/14 10:39:32;;;;;;;14.90;8.77;;;4.40;99.90;;;;;;5056667;28;20177;-86
2022/12/14 10:42:10;;;;;;;17.35;9.23;;;4.70;99.90;;;;;;5056830;28;20182;-86
2022/12/14 10:44:54;;;;;;;12.98;8.95;;;5.00;99.90;;;;;;5049382;28;20182;-87
2022/12/14 10:47:30;;;;;;;14.30;8.68;;;5.30;99.90;;;;;;5034373;28;20198;-86
2022/12/14 10:50:12;;;;;;;13.20;8.75;;;5.60;99.90;;;;;;5053468;28;20239;-87
2022/12/14 10:52:41;;;;;;;15.85;10.05;;;5.80;99.90;;;;;;5054342;28;20192;-86
2022/12/14 10:55:28;;;;;;;14.13;9.88;;;6.00;99.90;;;;;;5052471;28;20374;-87
2022/12/14 10:57:54;;;;;;;16.70;10.40;;;6.10;99.90;;;;;;5047369;28;20248;-87
2022/12/14 11:00:20;;;;;;;15.07;9.27;;;6.00;99.90;;;;;;5055493;28;20559;-88
2022/12/14 11:02:49;;;;;;;14.60;9.57;;;6.00;99.90;;;;;;5049406;28;20183;-88
2022/12/14 11:05:40;;;;;;;14.80;9.57;;;6.10;99.90;;;;;;5044521;28;20186;-87
2022/12/14 11:08:06;;;;;;;13.40;9.68;;;6.10;99.90;;;;;;5048849;28;20552;-89
2022/12/14 11:10:34;;;;;;;16.77;9.60;;;6.00;99.90;;;;;;5054418;28;20178;-88
2022/12/14 11:13:02;;;;;;;13.25;7.90;;;6.10;99.90;;;;;;5044352;28;20188;-87
2022/12/14 11:15:38;;;;;;;17.25;9.02;;;6.30;99.90;;;;;;5053409;28;20228;-88
2022/12/14 11:18:06;;;;;;;13.25;9.50;;;6.50;99.90;;;;;;5055928;28;20193;-88
2022/12/14 11:20:32;;;;;;;12.98;8.43;;;6.60;99.90;;;;;;5045230;28;20193;-86
2022/12/14 11:23:28;;;;;;;15.13;9.13;;;6.70;99.90;;;;;;5059726;28;20162;-86
2022/12/14 11:25:56;;;;;;;14.00;8.20;;;6.90;99.90;;;;;;5051377;28;20220;-86
2022/12/14 11:28:28;;;;;;;12.80;8.17;;;7.60;99.90;;;;;;5047643;28;20436;-87
2022/12/14 11:30:58;;;;;;;14.30;9.23;;;8.30;99.90;;;;;;5048361;28;20456;-86
2022/12/14 11:33:52;;;;;;;12.03;9.50;;;8.60;99.90;;;;;;5042712;28;20415;-87
2022/12/14 11:36:39;;;;;;;14.23;9.43;;;8.70;99.90;;;;;;5049812;28;20455;-87
2022/12/14 11:39:51;;;;;;;13.60;8.90;;;9.60;99.90;;;;;;5049322;28;20453;-87
2022/12/14 11:42:35;;;;;;;12.37;8.83;;;10.70;99.90;;;;;;5091748;28;20473;-87
2022/12/14 11:45:32;;;;;;;14.20;9.90;;;12.00;99.90;;;;;;5062989;28;20461;-88
2022/12/14 11:48:13;;;;;;;21.53;10.47;;;12.80;99.90;;;;;;5056447;28;20442;-87
2022/12/14 11:50:42;;;;;;;13.00;10.20;;;13.30;99.90;;;;;;5055173;28;20487;-88
2022/12/14 11:53:13;;;;;;;14.83;9.90;;;13.70;99.90;;;;;;5043305;28;20462;-88
2022/12/14 11:55:47;;;;;;;11.70;9.40;;;14.00;99.90;;;;;;5045042;28;20474;-87
2022/12/14 11:58:22;;;;;;;14.60;9.27;;;14.50;99.90;;;;;;5045001;28;20436;-89
2022/12/14 12:00:57;;;;;;;12.80;8.77;;;15.20;99.90;;;;;;5043842;28;20437;-88
2022/12/14 12:03:28;;;;;;;13.67;9.53;;;15.90;99.90;;;;;;5053248;28;21023;-87
2022/12/14 12:06:00;;;;;;;12.77;9.80;;;16.50;99.90;;;;;;5053033;28;20477;-88
2022/12/14 12:08:29;;;;;;;12.73;9.23;;;16.80;99.90;;;;;;5053057;28;20461;-87
2022/12/14 12:10:58;;;;;;;17.83;9.50;;;17.00;99.90;;;;;;5045284;28;20435;-87
2022/12/14 12:13:31;;;;;;;11.23;8.90;;;17.30;99.90;;;;;;5052544;28;20817;-88
2022/12/14 12:16:12;;;;;;;18.50;9.50;;;17.60;99.90;;;;;;5049584;28;20839;-87
2022/12/14 12:18:43;;;;;;;12.60;10.00;;;17.70;99.90;;;;;;5050199;28;21099;-87
2022/12/14 12:21:21;;;;;;;12.10;9.70;;;17.50;99.90;;;;;;5047454;28;20455;-87
2022/12/14 12:24:00;;;;;;;13.20;10.53;;;17.10;99.90;;;;;;5033097;28;20492;-89
2022/12/14 12:27:10;;;;;;;15.57;9.40;;;17.10;99.90;;;;;;5046407;28;20460;-87
2022/12/14 12:29:39;;;;;;;12.20;10.00;;;17.20;99.90;;;;;;5044357;28;20528;-87
2022/12/14 12:32:25;;;;;;;13.37;10.67;;;17.20;99.90;;;;;;5049514;28;20478;-88
2022/12/14 12:35:49;;;;;;;13.47;9.47;;;16.80;99.90;;;;;;5034335;28;20787;-88
2022/12/14 12:38:44;;;;;;;15.10;10.73;;;16.50;99.90;;;;;;5035809;28;20782;-89
2022/12/14 12:44:59;;;;;;;13.43;9.77;;;15.70;99.90;;;;;;5057566;28;20538;-89
2022/12/14 12:47:33;;;;;;;12.67;10.53;;;15.70;99.90;;;;;;5041111;28;20888;-88
2022/12/14 12:50:27;;;;;;;12.80;9.87;;;15.80;99.90;;;;;;5045308;28;20436;-89
2022/12/14 12:52:53;;;;;;;13.80;10.53;;;15.90;99.90;;;;;;5036279;28;20432;-87
2022/12/14 12:55:22;;;;;;;13.83;10.33;;;15.90;99.90;;;;;;5041017;28;20433;-88
2022/12/14 12:57:57;;;;;;;16.87;10.40;;;16.00;99.90;;;;;;5047574;28;20383;-86
2022/12/14 13:00:33;;;;;;;13.60;10.50;;;16.00;99.90;;;;;;5030711;28;20511;-88
2022/12/14 13:03:04;;;;;;;14.03;10.97;;;16.00;99.90;;;;;;5048318;28;20427;-88
2022/12/14 13:05:32;;;;;;;16.63;10.73;;;15.90;99.90;;;;;;5044422;28;20460;-87
2022/12/14 13:08:13;;;;;;;13.57;10.20;;;15.80;99.90;;;;;;5052784;28;20419;-87
2022/12/14 13:17:54;;;;;;;14.87;10.90;;;15.10;99.90;;;;;;5042201;28;20452;-87
2022/12/14 13:21:03;;;;;;;15.00;10.67;;;14.50;99.90;;;;;;5021702;28;20416;-87
2022/12/14 13:23:46;;;;;;;14.93;10.60;;;14.20;99.90;;;;;;5014245;28;20451;-88
2022/12/14 13:26:36;;;;;;;13.53;10.43;;;14.00;99.90;;;;;;5034304;28;20468;-90
2022/12/14 13:29:07;;;;;;;22.43;11.30;;;13.60;99.90;;;;;;5050845;28;20429;-89
2022/12/14 13:31:50;;;;;;;13.40;10.03;;;13.20;99.90;;;;;;5044492;28;20982;-90
2022/12/14 13:34:42;;;;;;;15.73;10.70;;;12.90;99.90;;;;;;5049860;28;20440;-89
2022/12/14 13:37:41;;;;;;;15.30;9.77;;;12.50;99.90;;;;;;5034981;28;20823;-90
2022/12/14 13:40:44;;;;;;;16.30;10.50;;;12.10;99.90;;;;;;5048961;28;20798;-89